Steilacoom, Washington
Current Conditions -  °F | °C
As of 9:58 AM on Saturday 22 Nov 2014 (Local Time) from KTCM Reporting Station
Haze Haze  
Wind Chill:   Ceiling: 4000
Heat Index:   Visibility: 6mi
Dew Point:   Wind: 10mph
Humidity: 99%   Direction: 200°SSW
Pressure: 29.78"   Gusts: NA
Location:  47.17°N, 122.59°W
Report Text: KTCM 221758Z AUTO 20009KT 6SM BR FEW008 SCT027 OVC040 07/07 A2978 RMK AO2 RAB1659E1753 CIG 032 RWY34 SLP089 P0005 60025 T00660065 10067 20045 52027 $
Loading
Personal Weather Stations






























Interactive Weather Map New forecast layout! Learn more

10-Day Weather Forecast

Advertisements
Track Severe Weather on mobile